Time;durP1;ratioP1;P1;durP2;ratioP2;P2;SDS_P1;SDS_P2;PMS_P1;PMS_P2;Temp;Humidity;BMP_temperature;BMP_pressure;BME280_temperature;BME280_humidity;BME280_pressure;Samples;Min_cycle;Max_cycle;Signal;HPM_P1;HPM_P2
2023/04/07 00:02:04;;;;;;;;;2.00;1.00;;;;;;;;4984471;28;63907;-81
2023/04/07 00:04:29;;;;;;;;;1.75;1.00;;;;;;;;4985292;28;62111;-80
2023/04/07 00:06:55;;;;;;;;;6.00;1.00;;;;;;;;4990672;28;61797;-80
2023/04/07 00:09:20;;;;;;;;;1.75;1.50;;;;;;;;4983593;28;62071;-81
2023/04/07 00:11:47;;;;;;;;;1.25;1.25;;;;;;;;4986365;28;62092;-81
2023/04/07 00:14:12;;;;;;;;;7.25;2.00;;;;;;;;5002933;28;61726;-80
2023/04/07 00:16:37;;;;;;;;;1.50;1.00;;;;;;;;4985204;28;62033;-80
2023/04/07 00:19:03;;;;;;;;;5.50;3.00;;;;;;;;4984985;28;62025;-80
2023/04/07 00:21:28;;;;;;;;;1.25;1.00;;;;;;;;4984726;28;63748;-80
2023/04/07 00:23:53;;;;;;;;;3.00;2.00;;;;;;;;4985333;28;61797;-80
2023/04/07 00:26:18;;;;;;;;;4.50;3.75;;;;;;;;5002720;28;61736;-81
2023/04/07 00:28:44;;;;;;;;;1.25;1.25;;;;;;;;4981674;28;61765;-80
2023/04/07 00:31:09;;;;;;;;;2.25;2.00;;;;;;;;4981102;28;63490;-81
2023/04/07 00:33:34;;;;;;;;;2.00;1.50;;;;;;;;4998742;28;61876;-80
2023/04/07 00:35:59;;;;;;;;;3.00;2.00;;;;;;;;4965541;28;61692;-82
2023/04/07 00:38:25;;;;;;;;;6.50;1.50;;;;;;;;4965758;28;62246;-83
2023/04/07 00:40:55;;;;;;;;;3.50;2.00;;;;;;;;4982475;28;62768;-82
2023/04/07 00:43:21;;;;;;;;;2.50;1.00;;;;;;;;4981274;28;61938;-82
2023/04/07 00:45:46;;;;;;;;;1.00;1.00;;;;;;;;4992754;28;61878;-82
2023/04/07 00:48:11;;;;;;;;;1.75;1.75;;;;;;;;4965719;28;61910;-82
2023/04/07 00:50:37;;;;;;;;;0.00;0.00;;;;;;;;4964560;28;64841;-80
2023/04/07 00:53:02;;;;;;;;;5.25;1.00;;;;;;;;4983199;28;62086;-82
2023/04/07 00:55:27;;;;;;;;;2.00;0.00;;;;;;;;4965445;28;61987;-81
2023/04/07 00:57:52;;;;;;;;;2.75;1.00;;;;;;;;4965925;28;62168;-82
2023/04/07 01:00:18;;;;;;;;;7.50;1.75;;;;;;;;4963023;28;63642;-82
2023/04/07 01:02:55;;;;;;;;;4.00;1.00;;;;;;;;4965501;28;61866;-82
2023/04/07 01:05:27;;;;;;;;;5.50;1.00;;;;;;;;4980305;28;61885;-82
2023/04/07 01:07:58;;;;;;;;;6.50;1.75;;;;;;;;4985169;28;62135;-81
2023/04/07 01:10:32;;;;;;;;;3.75;2.25;;;;;;;;5001885;28;61884;-82
2023/04/07 01:13:07;;;;;;;;;2.00;2.00;;;;;;;;4984792;28;61687;-83
2023/04/07 01:15:34;;;;;;;;;2.00;2.00;;;;;;;;4982675;28;62041;-80
2023/04/07 01:18:07;;;;;;;;;1.75;1.75;;;;;;;;4982962;28;61903;-82
2023/04/07 01:20:33;;;;;;;;;3.25;2.00;;;;;;;;4962955;28;63710;-82
2023/04/07 01:23:02;;;;;;;;;1.75;1.75;;;;;;;;4963478;28;61937;-82
2023/04/07 01:25:29;;;;;;;;;2.00;1.00;;;;;;;;4964030;28;61952;-83
2023/04/07 01:27:54;;;;;;;;;4.00;2.00;;;;;;;;4982016;28;62328;-82
2023/04/07 01:30:21;;;;;;;;;3.75;2.25;;;;;;;;4962806;28;65068;-82
2023/04/07 01:32:50;;;;;;;;;3.00;1.00;;;;;;;;4995432;28;61857;-82
2023/04/07 01:35:15;;;;;;;;;5.75;1.50;;;;;;;;5001721;28;62094;-82
2023/04/07 01:37:42;;;;;;;;;2.50;2.50;;;;;;;;4984429;28;62026;-82
2023/04/07 01:40:07;;;;;;;;;3.50;2.00;;;;;;;;4983791;28;63785;-82
2023/04/07 01:42:33;;;;;;;;;2.25;2.00;;;;;;;;5001402;28;61776;-82
2023/04/07 01:44:59;;;;;;;;;1.75;1.00;;;;;;;;4984222;28;61868;-82
2023/04/07 01:47:29;;;;;;;;;1.50;1.50;;;;;;;;5002128;28;62132;-83
2023/04/07 01:49:55;;;;;;;;;4.25;2.00;;;;;;;;5001215;28;62077;-83
2023/04/07 01:52:21;;;;;;;;;4.50;1.25;;;;;;;;5001931;28;61696;-82
2023/04/07 01:54:46;;;;;;;;;2.00;1.00;;;;;;;;4984039;28;62285;-82
2023/04/07 01:57:12;;;;;;;;;2.25;0.75;;;;;;;;5001834;28;61748;-82
2023/04/07 01:59:37;;;;;;;;;2.50;1.00;;;;;;;;4982706;28;63721;-81
2023/04/07 02:02:02;;;;;;;;;3.50;1.00;;;;;;;;4977818;28;61919;-81
2023/04/07 02:04:31;;;;;;;;;1.50;0.75;;;;;;;;4963832;28;62248;-81
2023/04/07 02:07:01;;;;;;;;;1.50;1.00;;;;;;;;4994835;28;61952;-81
2023/04/07 02:09:29;;;;;;;;;1.00;1.00;;;;;;;;5001000;28;62094;-80
2023/04/07 02:11:57;;;;;;;;;8.75;1.25;;;;;;;;4985931;28;61987;-81
2023/04/07 02:14:23;;;;;;;;;3.75;1.25;;;;;;;;5005266;28;61883;-81
2023/04/07 02:16:48;;;;;;;;;2.00;2.00;;;;;;;;4987264;28;61706;-81
2023/04/07 02:19:14;;;;;;;;;3.75;1.50;;;;;;;;4986489;28;63869;-80
2023/04/07 02:21:40;;;;;;;;;6.25;2.50;;;;;;;;5004703;28;61764;-80
2023/04/07 02:24:06;;;;;;;;;0.75;0.75;;;;;;;;5004946;28;61791;-80
2023/04/07 02:26:34;;;;;;;;;2.00;2.00;;;;;;;;4995297;28;61938;-80
2023/04/07 02:29:00;;;;;;;;;3.75;2.75;;;;;;;;4982823;28;64063;-80
2023/04/07 02:31:25;;;;;;;;;1.00;0.75;;;;;;;;4987550;28;62051;-80
2023/04/07 02:33:51;;;;;;;;;6.00;1.25;;;;;;;;5004455;28;61764;-81
2023/04/07 02:36:16;;;;;;;;;2.00;1.00;;;;;;;;4987193;28;62040;-80
2023/04/07 02:38:41;;;;;;;;;2.50;2.00;;;;;;;;5004117;28;62042;-80
2023/04/07 02:41:06;;;;;;;;;7.50;5.00;;;;;;;;4986310;28;61949;-81
2023/04/07 02:43:32;;;;;;;;;10.50;7.50;;;;;;;;5004672;28;61919;-80
2023/04/07 02:45:57;;;;;;;;;2.75;1.50;;;;;;;;4986931;28;62038;-81
2023/04/07 02:48:22;;;;;;;;;2.25;2.25;;;;;;;;5004002;28;61923;-80
2023/04/07 02:50:47;;;;;;;;;3.00;1.00;;;;;;;;5004139;28;61859;-81
2023/04/07 02:53:13;;;;;;;;;1.00;1.00;;;;;;;;4986843;28;61935;-81
2023/04/07 02:55:38;;;;;;;;;4.00;3.25;;;;;;;;5003967;28;61824;-81
2023/04/07 02:58:03;;;;;;;;;7.50;2.75;;;;;;;;4986259;28;63759;-81
2023/04/07 03:00:28;;;;;;;;;3.00;3.00;;;;;;;;5003777;28;61792;-81
2023/04/07 03:02:54;;;;;;;;;2.00;2.00;;;;;;;;4986084;28;61785;-81
2023/04/07 03:05:19;;;;;;;;;5.00;2.75;;;;;;;;5004185;28;61987;-80
2023/04/07 03:07:45;;;;;;;;;2.50;2.50;;;;;;;;5003523;28;61955;-81
2023/04/07 03:10:10;;;;;;;;;3.00;1.75;;;;;;;;4986162;28;62207;-81
2023/04/07 03:12:35;;;;;;;;;1.75;1.75;;;;;;;;4986703;28;62018;-81
2023/04/07 03:15:01;;;;;;;;;2.00;2.00;;;;;;;;5003929;28;62039;-81
2023/04/07 03:17:26;;;;;;;;;2.00;2.00;;;;;;;;4985749;28;64215;-81
2023/04/07 03:19:51;;;;;;;;;3.50;2.00;;;;;;;;4966234;28;62591;-81
2023/04/07 03:22:16;;;;;;;;;2.25;2.25;;;;;;;;4966200;28;61927;-81
2023/04/07 03:24:41;;;;;;;;;7.75;3.75;;;;;;;;4966338;28;61776;-81
2023/04/07 03:27:07;;;;;;;;;3.50;1.50;;;;;;;;4983751;28;61953;-81
2023/04/07 03:29:32;;;;;;;;;2.50;1.00;;;;;;;;4987423;28;62859;-81
2023/04/07 03:31:57;;;;;;;;;5.50;3.00;;;;;;;;4985498;28;61911;-81
2023/04/07 03:34:23;;;;;;;;;2.00;2.00;;;;;;;;5003809;28;61764;-81
2023/04/07 03:36:48;;;;;;;;;6.75;3.25;;;;;;;;5003171;28;61989;-81
2023/04/07 03:39:13;;;;;;;;;3.75;2.25;;;;;;;;5003266;28;61705;-81
2023/04/07 03:41:39;;;;;;;;;3.75;3.25;;;;;;;;4986175;28;61764;-81
2023/04/07 03:44:04;;;;;;;;;2.00;2.00;;;;;;;;4998762;28;62184;-81
2023/04/07 03:46:29;;;;;;;;;8.00;3.50;;;;;;;;4965761;28;63513;-81
2023/04/07 03:48:55;;;;;;;;;2.00;1.75;;;;;;;;4983595;28;61806;-80
2023/04/07 03:51:20;;;;;;;;;3.50;3.00;;;;;;;;4984262;28;61696;-81
2023/04/07 03:53:46;;;;;;;;;3.25;1.75;;;;;;;;4965803;28;62201;-81
2023/04/07 03:56:11;;;;;;;;;2.25;2.00;;;;;;;;4982820;28;61770;-81
2023/04/07 03:58:36;;;;;;;;;3.00;2.00;;;;;;;;4965744;28;61989;-80
2023/04/07 04:01:02;;;;;;;;;4.50;3.00;;;;;;;;4978532;28;61782;-81
2023/04/07 04:03:27;;;;;;;;;2.50;2.00;;;;;;;;4985431;28;61820;-81
2023/04/07 04:05:52;;;;;;;;;8.75;2.00;;;;;;;;4984221;28;64164;-81
2023/04/07 04:08:17;;;;;;;;;2.00;2.00;;;;;;;;5002967;28;62027;-81
2023/04/07 04:10:43;;;;;;;;;6.00;3.50;;;;;;;;4985688;28;61835;-81
2023/04/07 04:13:08;;;;;;;;;4.75;3.00;;;;;;;;5002864;28;61851;-81
2023/04/07 04:15:33;;;;;;;;;7.50;3.00;;;;;;;;4982777;28;63121;-81
2023/04/07 04:17:58;;;;;;;;;6.75;3.00;;;;;;;;4987523;28;61831;-81
2023/04/07 04:20:24;;;;;;;;;2.50;2.50;;;;;;;;4985096;28;61848;-81
2023/04/07 04:22:49;;;;;;;;;2.00;2.00;;;;;;;;4985495;28;62074;-81
2023/04/07 04:25:15;;;;;;;;;1.25;1.25;;;;;;;;5002005;28;63189;-81
2023/04/07 04:27:41;;;;;;;;;8.00;2.50;;;;;;;;5003045;28;61873;-81
2023/04/07 04:30:06;;;;;;;;;1.00;1.00;;;;;;;;4994885;28;61797;-81
2023/04/07 04:32:32;;;;;;;;;6.00;2.25;;;;;;;;4976837;28;61952;-81
2023/04/07 04:34:57;;;;;;;;;3.25;1.50;;;;;;;;4982739;28;64975;-81
2023/04/07 04:37:22;;;;;;;;;3.00;3.00;;;;;;;;4966601;28;62263;-81
2023/04/07 04:39:48;;;;;;;;;2.50;2.00;;;;;;;;4983001;28;62158;-81
2023/04/07 04:42:13;;;;;;;;;2.25;1.50;;;;;;;;4982817;28;62006;-81
2023/04/07 04:44:38;;;;;;;;;2.25;1.00;;;;;;;;4991534;28;61716;-81
2023/04/07 04:47:03;;;;;;;;;2.50;1.50;;;;;;;;4984514;28;61802;-81
2023/04/07 04:49:29;;;;;;;;;3.25;1.00;;;;;;;;4984423;28;62521;-81
2023/04/07 04:51:54;;;;;;;;;2.25;2.25;;;;;;;;5001989;28;62249;-81
2023/04/07 04:54:19;;;;;;;;;8.25;3.50;;;;;;;;4983714;28;63628;-81
2023/04/07 04:56:45;;;;;;;;;6.00;2.50;;;;;;;;4974259;28;61791;-80
2023/04/07 04:59:10;;;;;;;;;4.50;2.00;;;;;;;;4965444;28;61743;-81
2023/04/07 05:01:35;;;;;;;;;3.75;2.50;;;;;;;;4965230;28;61907;-81
2023/04/07 05:04:00;;;;;;;;;2.00;2.00;;;;;;;;4981683;28;62053;-80
2023/04/07 05:06:26;;;;;;;;;2.00;2.00;;;;;;;;4981844;28;61657;-80
2023/04/07 05:08:52;;;;;;;;;3.00;2.00;;;;;;;;4964947;28;61842;-81
2023/04/07 05:11:18;;;;;;;;;4.00;2.50;;;;;;;;4982612;28;62062;-82
2023/04/07 05:13:48;;;;;;;;;2.25;2.25;;;;;;;;4964713;28;63382;-82
2023/04/07 05:16:13;;;;;;;;;8.25;3.00;;;;;;;;4993059;28;62084;-81
2023/04/07 05:18:38;;;;;;;;;2.00;2.00;;;;;;;;5022260;28;61740;-81
2023/04/07 05:21:03;;;;;;;;;3.00;3.00;;;;;;;;4984639;28;61872;-80
2023/04/07 05:23:28;;;;;;;;;2.75;2.75;;;;;;;;5003800;28;62863;-81
2023/04/07 05:25:54;;;;;;;;;3.00;3.00;;;;;;;;5002168;28;61777;-81
2023/04/07 05:28:19;;;;;;;;;5.75;3.25;;;;;;;;5004172;28;62100;-83
2023/04/07 05:30:45;;;;;;;;;6.75;4.00;;;;;;;;4985809;28;61769;-83
2023/04/07 05:33:10;;;;;;;;;7.00;3.00;;;;;;;;4983835;28;63869;-81
2023/04/07 05:35:35;;;;;;;;;6.75;4.75;;;;;;;;4983762;28;62216;-81
2023/04/07 05:38:00;;;;;;;;;5.00;3.00;;;;;;;;5002510;28;61857;-82
2023/04/07 05:40:27;;;;;;;;;8.50;5.00;;;;;;;;4980434;28;61828;-82
2023/04/07 05:42:52;;;;;;;;;7.00;3.75;;;;;;;;5001591;28;63041;-82
2023/04/07 05:45:17;;;;;;;;;7.25;5.50;;;;;;;;4994867;28;61922;-82
2023/04/07 05:47:42;;;;;;;;;5.75;3.00;;;;;;;;4977142;28;61983;-82
2023/04/07 05:50:08;;;;;;;;;5.00;4.00;;;;;;;;4976957;28;62116;-82
2023/04/07 05:52:33;;;;;;;;;6.75;6.75;;;;;;;;4999169;28;61959;-78
2023/04/07 05:54:58;;;;;;;;;13.25;4.50;;;;;;;;4979379;28;61810;-83
2023/04/07 05:57:26;;;;;;;;;5.00;4.00;;;;;;;;4987627;28;61834;-83
2023/04/07 05:59:51;;;;;;;;;12.50;7.00;;;;;;;;4987021;28;61942;-84
2023/04/07 06:02:16;;;;;;;;;5.50;4.50;;;;;;;;4986890;28;64786;-84
2023/04/07 06:04:42;;;;;;;;;4.00;4.00;;;;;;;;4986773;28;62084;-83
2023/04/07 06:07:07;;;;;;;;;6.00;6.00;;;;;;;;4987459;28;61994;-83
2023/04/07 06:09:32;;;;;;;;;7.00;4.50;;;;;;;;4994019;28;61808;-84
2023/04/07 06:11:57;;;;;;;;;7.25;6.25;;;;;;;;4967278;28;63785;-83
2023/04/07 06:14:23;;;;;;;;;5.75;5.75;;;;;;;;4967665;28;62017;-83
2023/04/07 06:16:48;;;;;;;;;6.50;5.50;;;;;;;;4985267;28;61772;-83
2023/04/07 06:19:13;;;;;;;;;8.00;4.00;;;;;;;;4967212;28;62116;-83
2023/04/07 06:21:39;;;;;;;;;6.75;5.00;;;;;;;;4967359;28;63539;-83
2023/04/07 06:24:04;;;;;;;;;13.75;4.00;;;;;;;;5004996;28;61846;-83
2023/04/07 06:26:29;;;;;;;;;8.00;6.00;;;;;;;;4986985;28;62041;-83
2023/04/07 06:28:55;;;;;;;;;10.75;8.75;;;;;;;;5004339;28;61920;-83
2023/04/07 06:31:20;;;;;;;;;7.50;7.50;;;;;;;;5004046;28;61855;-82
2023/04/07 06:33:45;;;;;;;;;12.00;10.50;;;;;;;;4985926;28;61932;-83
2023/04/07 06:36:11;;;;;;;;;8.00;6.25;;;;;;;;4966929;28;61884;-83
2023/04/07 06:38:36;;;;;;;;;8.50;6.25;;;;;;;;4967351;28;61911;-83
2023/04/07 06:41:01;;;;;;;;;8.25;5.00;;;;;;;;4966396;28;64480;-83
2023/04/07 06:43:27;;;;;;;;;8.00;6.00;;;;;;;;5000420;28;61836;-82
2023/04/07 06:45:52;;;;;;;;;10.00;5.50;;;;;;;;4994051;28;62220;-81
2023/04/07 06:48:18;;;;;;;;;9.25;7.75;;;;;;;;4995183;28;61784;-83
2023/04/07 06:50:48;;;;;;;;;6.75;6.75;;;;;;;;4991032;28;63017;-83
2023/04/07 06:53:13;;;;;;;;;16.00;8.00;;;;;;;;4974844;28;62120;-83
2023/04/07 06:55:38;;;;;;;;;8.50;7.50;;;;;;;;4975548;28;62137;-83
2023/04/07 06:58:04;;;;;;;;;9.00;7.00;;;;;;;;4976768;28;62218;-83
2023/04/07 07:00:29;;;;;;;;;13.00;8.50;;;;;;;;4991437;28;62885;-83
2023/04/07 07:02:55;;;;;;;;;12.50;6.50;;;;;;;;4993654;28;61737;-83
2023/04/07 07:05:22;;;;;;;;;5.00;5.00;;;;;;;;4993310;28;61767;-82
2023/04/07 07:07:47;;;;;;;;;10.25;7.75;;;;;;;;4974746;28;61839;-83
2023/04/07 07:10:12;;;;;;;;;9.00;6.00;;;;;;;;4977764;28;64724;-82
2023/04/07 07:12:38;;;;;;;;;5.25;5.25;;;;;;;;4984696;28;61829;-83
2023/04/07 07:15:03;;;;;;;;;10.00;6.00;;;;;;;;4966244;28;61781;-82
2023/04/07 07:17:29;;;;;;;;;9.50;6.25;;;;;;;;4966465;28;62238;-83
2023/04/07 07:19:54;;;;;;;;;7.25;7.25;;;;;;;;4974207;28;63920;-82
2023/04/07 07:22:19;;;;;;;;;10.00;7.25;;;;;;;;4985652;28;61898;-78
2023/04/07 07:24:44;;;;;;;;;12.25;7.25;;;;;;;;5002658;28;61879;-77
2023/04/07 07:27:10;;;;;;;;;10.50;9.25;;;;;;;;4976618;28;62174;-78
2023/04/07 07:29:35;;;;;;;;;9.50;7.75;;;;;;;;5001493;28;62016;-84
2023/04/07 07:32:00;;;;;;;;;14.75;10.00;;;;;;;;4978410;28;61951;-84
2023/04/07 07:34:25;;;;;;;;;15.25;10.00;;;;;;;;4973843;28;62502;-84
2023/04/07 07:36:51;;;;;;;;;24.50;15.75;;;;;;;;4969440;28;61860;-84
2023/04/07 07:39:16;;;;;;;;;13.00;8.75;;;;;;;;4961693;28;63549;-84
2023/04/07 07:41:41;;;;;;;;;15.00;10.25;;;;;;;;4982618;28;61824;-84
2023/04/07 07:44:06;;;;;;;;;11.75;10.00;;;;;;;;4967298;28;61854;-84
2023/04/07 07:46:32;;;;;;;;;9.00;7.25;;;;;;;;4996854;28;62180;-84
2023/04/07 07:48:57;;;;;;;;;13.00;8.75;;;;;;;;4984165;28;63832;-84
2023/04/07 07:51:22;;;;;;;;;6.00;6.00;;;;;;;;4967295;28;61871;-84
2023/04/07 07:53:47;;;;;;;;;9.75;8.75;;;;;;;;4983228;28;61867;-84
2023/04/07 07:56:13;;;;;;;;;9.50;8.25;;;;;;;;4981653;28;61690;-84
2023/04/07 07:58:38;;;;;;;;;11.00;9.00;;;;;;;;4980194;28;64737;-84
2023/04/07 08:01:05;;;;;;;;;9.50;7.25;;;;;;;;4981016;28;61919;-83
2023/04/07 08:03:32;;;;;;;;;8.75;8.75;;;;;;;;4975678;28;61733;-85
2023/04/07 08:05:57;;;;;;;;;10.00;7.75;;;;;;;;4973523;28;61893;-84
2023/04/07 08:08:22;;;;;;;;;7.25;7.25;;;;;;;;4960903;28;64200;-84
2023/04/07 08:10:49;;;;;;;;;7.00;7.00;;;;;;;;4967435;28;61667;-84
2023/04/07 08:13:14;;;;;;;;;12.75;8.50;;;;;;;;4982860;28;61821;-84
2023/04/07 08:15:40;;;;;;;;;15.50;9.00;;;;;;;;4981185;28;62133;-84
2023/04/07 08:18:06;;;;;;;;;7.00;6.75;;;;;;;;4982068;28;61900;-84
2023/04/07 08:20:31;;;;;;;;;8.50;7.00;;;;;;;;4982181;28;61648;-84
2023/04/07 08:22:57;;;;;;;;;13.00;9.50;;;;;;;;4982842;28;61749;-84
2023/04/07 08:25:22;;;;;;;;;9.50;8.00;;;;;;;;4980917;28;61859;-84
2023/04/07 08:27:48;;;;;;;;;17.50;11.00;;;;;;;;4982090;28;62940;-84
2023/04/07 08:30:14;;;;;;;;;9.50;6.00;;;;;;;;4971389;28;61869;-83
2023/04/07 08:32:40;;;;;;;;;14.75;8.00;;;;;;;;4980933;28;62188;-84
2023/04/07 08:35:06;;;;;;;;;11.25;7.50;;;;;;;;4982482;28;61892;-84
2023/04/07 08:37:31;;;;;;;;;10.00;8.50;;;;;;;;4964105;28;63685;-84
2023/04/07 08:39:56;;;;;;;;;11.00;9.00;;;;;;;;4988934;28;61895;-84
2023/04/07 08:42:26;;;;;;;;;15.00;9.25;;;;;;;;4972070;28;61872;-83
2023/04/07 08:44:52;;;;;;;;;9.00;4.75;;;;;;;;4970889;28;61761;-84
2023/04/07 08:47:21;;;;;;;;;10.00;7.50;;;;;;;;4983266;28;64943;-84
2023/04/07 08:50:03;;;;;;;;;10.75;7.00;;;;;;;;4983205;28;61808;-84
2023/04/07 08:52:57;;;;;;;;;10.75;5.75;;;;;;;;4983747;28;62012;-83
2023/04/07 08:55:32;;;;;;;;;10.25;5.75;;;;;;;;5002352;28;61891;-84
2023/04/07 08:58:20;;;;;;;;;10.25;6.00;;;;;;;;4983064;28;64517;-84
2023/04/07 09:01:00;;;;;;;;;9.00;7.50;;;;;;;;4982812;28;61865;-83
2023/04/07 09:03:25;;;;;;;;;8.75;7.00;;;;;;;;4983377;28;62220;-83
2023/04/07 09:05:55;;;;;;;;;4.50;4.50;;;;;;;;4980666;28;61983;-83
2023/04/07 09:08:36;;;;;;;;;9.00;5.75;;;;;;;;4981671;28;62002;-83
2023/04/07 09:14:09;;;;;;;;;9.50;6.50;;;;;;;;4981602;28;61955;-84
2023/04/07 09:17:04;;;;;;;;;11.50;7.50;;;;;;;;4981854;28;61878;-83
2023/04/07 09:19:36;;;;;;;;;8.75;7.25;;;;;;;;4957597;28;63817;-84
2023/04/07 09:22:17;;;;;;;;;10.00;7.00;;;;;;;;4981060;28;62033;-83
2023/04/07 09:24:53;;;;;;;;;12.00;7.00;;;;;;;;4963482;28;61937;-84
2023/04/07 09:27:32;;;;;;;;;8.50;8.00;;;;;;;;4964212;28;61920;-84
2023/04/07 09:30:14;;;;;;;;;9.50;7.25;;;;;;;;4962642;28;63238;-84
2023/04/07 09:33:07;;;;;;;;;8.75;8.75;;;;;;;;4987627;28;61920;-83
2023/04/07 09:35:41;;;;;;;;;10.75;6.75;;;;;;;;4920152;28;62119;-84
2023/04/07 09:38:46;;;;;;;;;12.25;7.75;;;;;;;;4904753;28;63154;-84
2023/04/07 09:41:18;;;;;;;;;7.00;6.25;;;;;;;;4899261;28;63759;-77
2023/04/07 09:43:45;;;;;;;;;10.75;8.00;;;;;;;;4906854;28;61973;-76
2023/04/07 09:46:11;;;;;;;;;8.00;5.50;;;;;;;;4909893;28;61901;-83
2023/04/07 09:48:37;;;;;;;;;12.00;6.25;;;;;;;;4920630;28;61905;-83
2023/04/07 09:51:21;;;;;;;;;10.50;7.00;;;;;;;;4889784;29;62014;-84
2023/04/07 09:53:50;;;;;;;;;5.00;4.50;;;;;;;;4918340;28;62272;-83
2023/04/07 09:56:16;;;;;;;;;5.50;5.00;;;;;;;;4917936;28;62451;-83
2023/04/07 09:58:42;;;;;;;;;7.50;7.50;;;;;;;;4886509;29;61832;-84
2023/04/07 10:01:08;;;;;;;;;7.25;4.00;;;;;;;;4917371;28;63563;-82
2023/04/07 10:03:34;;;;;;;;;7.00;3.25;;;;;;;;4918070;28;62076;-83
2023/04/07 10:06:02;;;;;;;;;7.50;7.00;;;;;;;;4916555;28;62187;-83
2023/04/07 10:08:30;;;;;;;;;6.75;6.50;;;;;;;;4902281;28;61769;-82
2023/04/07 10:10:56;;;;;;;;;9.50;8.00;;;;;;;;4908141;28;63702;-82
2023/04/07 10:13:23;;;;;;;;;10.00;7.75;;;;;;;;4966342;28;62046;-82
2023/04/07 10:15:48;;;;;;;;;6.75;6.75;;;;;;;;4990369;28;62006;-76
2023/04/07 10:18:13;;;;;;;;;8.00;7.00;;;;;;;;4992167;28;62000;-77
2023/04/07 10:20:42;;;;;;;;;8.50;6.00;;;;;;;;4971086;28;63662;-78
2023/04/07 10:23:20;;;;;;;;;2.75;2.75;;;;;;;;4972971;28;61895;-77
2023/04/07 10:25:52;;;;;;;;;5.00;4.00;;;;;;;;4972028;28;62105;-83
2023/04/07 10:28:20;;;;;;;;;6.00;4.75;;;;;;;;4955557;28;62083;-80
2023/04/07 10:30:46;;;;;;;;;3.00;2.00;;;;;;;;4989111;28;62880;-81
2023/04/07 10:33:12;;;;;;;;;4.25;1.50;;;;;;;;5001653;28;61950;-82
2023/04/07 10:36:13;;;;;;;;;1.00;1.00;;;;;;;;4980570;28;62083;-80
2023/04/07 10:38:38;;;;;;;;;4.50;3.00;;;;;;;;4917229;28;62117;-79
2023/04/07 10:41:34;;;;;;;;;7.00;4.25;;;;;;;;4917552;28;63485;-80
2023/04/07 10:44:01;;;;;;;;;7.50;4.00;;;;;;;;4902418;28;61956;-81
2023/04/07 10:46:47;;;;;;;;;6.25;2.50;;;;;;;;4913616;28;62092;-80
2023/04/07 10:49:15;;;;;;;;;3.00;3.00;;;;;;;;4921215;28;62512;-79
2023/04/07 10:51:41;;;;;;;;;4.75;3.75;;;;;;;;4902577;28;61994;-81
2023/04/07 10:54:19;;;;;;;;;6.25;3.75;;;;;;;;4897802;28;62133;-83
2023/04/07 10:57:04;;;;;;;;;5.00;3.25;;;;;;;;4900633;28;61819;-83
2023/04/07 10:59:29;;;;;;;;;3.25;3.25;;;;;;;;4914060;28;62045;-83
2023/04/07 11:02:16;;;;;;;;;2.00;2.00;;;;;;;;4897838;28;64795;-82
2023/04/07 11:04:42;;;;;;;;;2.00;2.00;;;;;;;;4907956;28;63133;-83
2023/04/07 11:07:07;;;;;;;;;4.75;3.00;;;;;;;;4913483;28;62033;-82
2023/04/07 11:09:33;;;;;;;;;3.00;3.00;;;;;;;;4896258;28;62015;-80
2023/04/07 11:11:58;;;;;;;;;3.50;2.25;;;;;;;;4932470;28;62045;-81
2023/04/07 11:14:31;;;;;;;;;1.50;1.50;;;;;;;;4972643;28;62016;-80
2023/04/07 11:16:57;;;;;;;;;4.00;3.00;;;;;;;;4975266;28;61885;-81
2023/04/07 11:19:22;;;;;;;;;1.75;1.50;;;;;;;;4975965;28;61985;-80
2023/04/07 11:21:48;;;;;;;;;1.25;1.25;;;;;;;;4976904;28;62231;-80
2023/04/07 11:24:33;;;;;;;;;1.00;1.00;;;;;;;;4990907;28;61980;-81
2023/04/07 11:26:59;;;;;;;;;5.50;3.00;;;;;;;;4985107;28;61841;-80
2023/04/07 11:29:29;;;;;;;;;1.25;1.00;;;;;;;;4970132;28;62158;-80
2023/04/07 11:31:55;;;;;;;;;3.25;2.00;;;;;;;;4971992;28;63372;-80
2023/04/07 11:34:21;;;;;;;;;2.50;2.00;;;;;;;;4992088;28;62120;-79
2023/04/07 11:36:46;;;;;;;;;4.50;2.00;;;;;;;;4976219;28;61894;-80
2023/04/07 11:39:19;;;;;;;;;1.25;1.25;;;;;;;;5002628;28;61794;-80
2023/04/07 11:41:46;;;;;;;;;1.50;1.00;;;;;;;;4984839;28;62100;-83
2023/04/07 11:44:12;;;;;;;;;1.50;1.00;;;;;;;;4978405;28;61899;-81
2023/04/07 11:46:58;;;;;;;;;0.50;0.25;;;;;;;;4983774;28;61682;-80
2023/04/07 11:49:24;;;;;;;;;3.75;2.00;;;;;;;;4972201;28;62491;-81
2023/04/07 11:52:07;;;;;;;;;1.00;1.00;;;;;;;;4983168;28;62810;-83
2023/04/07 11:54:43;;;;;;;;;2.75;2.25;;;;;;;;4966616;28;61821;-83
2023/04/07 11:57:12;;;;;;;;;2.75;1.00;;;;;;;;5000392;28;61953;-83
2023/04/07 11:59:37;;;;;;;;;2.75;1.00;;;;;;;;4984440;28;61951;-84
2023/04/07 12:02:02;;;;;;;;;1.00;1.00;;;;;;;;4968553;28;63895;-84
2023/04/07 12:04:28;;;;;;;;;2.75;2.00;;;;;;;;4985308;28;62073;-81
2023/04/07 12:06:53;;;;;;;;;1.50;1.50;;;;;;;;4984426;28;61772;-82
2023/04/07 12:09:28;;;;;;;;;1.00;1.00;;;;;;;;4972320;28;62030;-82
2023/04/07 12:11:55;;;;;;;;;3.75;1.25;;;;;;;;4980923;28;64674;-83
2023/04/07 12:14:20;;;;;;;;;1.25;1.25;;;;;;;;4987471;28;61910;-83
2023/04/07 12:16:45;;;;;;;;;2.00;2.00;;;;;;;;4973937;28;61722;-84
2023/04/07 12:28:09;;;;;;;;;1.50;1.50;;;;;;;;4992446;28;61847;-83
2023/04/07 12:30:41;;;;;;;;;1.00;1.00;;;;;;;;4989148;28;62513;-83
2023/04/07 12:33:11;;;;;;;;;1.00;1.00;;;;;;;;4998081;28;61835;-82
2023/04/07 12:38:55;;;;;;;;;1.75;1.75;;;;;;;;4956579;28;62043;-83
2023/04/07 13:12:44;;;;;;;;;2.00;1.75;;;;;;;;4846021;29;62008;-83
2023/04/07 13:15:27;;;;;;;;;;;;;;;;;;;;;
2023/04/07 14:16:22;;;;;;;;;1.00;0.33;;;;;;;;4668641;30;61991;-79
2023/04/07 14:18:50;;;;;;;;;1.00;1.00;;;;;;;;4703254;29;62168;-83
2023/04/07 14:21:15;;;;;;;;;1.67;1.67;;;;;;;;4789893;29;62518;-83
2023/04/07 14:23:41;;;;;;;;;1.00;1.00;;;;;;;;4831458;29;64907;-84
2023/04/07 14:26:10;;;;;;;;;0.33;0.33;;;;;;;;4866751;29;62186;-84
2023/04/07 14:28:36;;;;;;;;;0.00;0.00;;;;;;;;4860356;29;61919;-85
2023/04/07 14:31:05;;;;;;;;;0.00;0.00;;;;;;;;4863521;29;62404;-82
2023/04/07 14:33:30;;;;;;;;;0.00;0.00;;;;;;;;4849789;29;64009;-82
2023/04/07 14:35:56;;;;;;;;;0.00;0.00;;;;;;;;4864769;28;61775;-83
2023/04/07 14:38:24;;;;;;;;;0.00;0.00;;;;;;;;4964356;28;62099;-82
2023/04/07 14:40:50;;;;;;;;;1.33;0.00;;;;;;;;4963622;28;62074;-82
2023/04/07 14:43:17;;;;;;;;;0.00;0.00;;;;;;;;4962574;28;64763;-82
2023/04/07 14:45:45;;;;;;;;;0.00;0.00;;;;;;;;4964211;28;61899;-82
2023/04/07 14:48:11;;;;;;;;;0.00;0.00;;;;;;;;4962741;28;61908;-82
2023/04/07 14:50:39;;;;;;;;;2.00;0.67;;;;;;;;4961158;28;62112;-83
2023/04/07 14:53:05;;;;;;;;;0.00;0.00;;;;;;;;4948647;28;64720;-83
2023/04/07 14:55:31;;;;;;;;;2.33;1.00;;;;;;;;4963883;28;61783;-83
2023/04/07 14:57:59;;;;;;;;;1.00;1.00;;;;;;;;4964502;28;62262;-83
2023/04/07 15:00:26;;;;;;;;;0.00;0.00;;;;;;;;4964705;28;61933;-84
2023/04/07 15:02:52;;;;;;;;;1.00;1.00;;;;;;;;4964679;28;63758;-84
2023/04/07 15:05:18;;;;;;;;;2.00;1.00;;;;;;;;4982615;28;62104;-84
2023/04/07 15:07:44;;;;;;;;;2.00;0.33;;;;;;;;4964927;28;62269;-84
2023/04/07 15:10:10;;;;;;;;;1.00;1.00;;;;;;;;4965780;28;62088;-84
2023/04/07 15:12:35;;;;;;;;;2.00;2.00;;;;;;;;4965084;28;64849;-84
2023/04/07 15:15:00;;;;;;;;;3.00;2.00;;;;;;;;4982462;28;61946;-83
2023/04/07 15:17:26;;;;;;;;;4.00;2.00;;;;;;;;4952072;28;61883;-82
2023/04/07 15:19:51;;;;;;;;;3.00;1.33;;;;;;;;4972436;28;61989;-83
2023/04/07 15:22:16;;;;;;;;;1.67;1.67;;;;;;;;4981868;28;61895;-82
2023/04/07 15:24:45;;;;;;;;;2.33;2.00;;;;;;;;4962897;28;61833;-83
2023/04/07 15:27:14;;;;;;;;;3.33;2.00;;;;;;;;4965337;28;61876;-83
2023/04/07 15:29:41;;;;;;;;;3.33;1.67;;;;;;;;4982203;28;61762;-83
2023/04/07 15:32:06;;;;;;;;;3.00;3.00;;;;;;;;4963087;28;63512;-84
2023/04/07 15:34:36;;;;;;;;;4.00;2.67;;;;;;;;4979368;28;62118;-83
2023/04/07 15:37:01;;;;;;;;;1.00;1.00;;;;;;;;4980083;28;61734;-83
2023/04/07 15:39:26;;;;;;;;;5.00;2.00;;;;;;;;4976144;28;61811;-85
2023/04/07 15:41:52;;;;;;;;;3.00;3.00;;;;;;;;4980790;28;63686;-83
2023/04/07 15:44:20;;;;;;;;;4.67;3.00;;;;;;;;4984646;28;61963;-84
2023/04/07 15:46:45;;;;;;;;;5.00;2.33;;;;;;;;4999848;28;61748;-83
2023/04/07 15:49:11;;;;;;;;;1.00;1.00;;;;;;;;4985122;28;62218;-84
2023/04/07 15:51:39;;;;;;;;;2.33;2.33;;;;;;;;4999856;28;62249;-83
2023/04/07 15:54:04;;;;;;;;;4.00;2.00;;;;;;;;4980269;28;61941;-82
2023/04/07 15:56:30;;;;;;;;;0.67;0.00;;;;;;;;4983091;28;62093;-83
2023/04/07 15:58:55;;;;;;;;;2.33;1.67;;;;;;;;4984114;28;61813;-83
2023/04/07 16:01:23;;;;;;;;;0.67;0.67;;;;;;;;5001977;28;61969;-84
2023/04/07 16:03:50;;;;;;;;;2.00;2.00;;;;;;;;4983918;28;61771;-83
2023/04/07 16:06:15;;;;;;;;;0.67;0.67;;;;;;;;5000145;28;62235;-83
2023/04/07 16:08:40;;;;;;;;;0.67;0.67;;;;;;;;4977805;28;61960;-83
2023/04/07 16:11:05;;;;;;;;;0.67;0.67;;;;;;;;4971150;28;63889;-83
2023/04/07 16:13:31;;;;;;;;;1.00;1.00;;;;;;;;4971928;28;62566;-83
2023/04/07 16:16:01;;;;;;;;;1.00;1.00;;;;;;;;4967940;28;62968;-83
2023/04/07 16:18:27;;;;;;;;;1.00;1.00;;;;;;;;4972449;28;62334;-82
2023/04/07 16:20:55;;;;;;;;;1.00;1.00;;;;;;;;4989064;28;62983;-86
2023/04/07 16:23:23;;;;;;;;;1.00;1.00;;;;;;;;4991494;28;61836;-83
2023/04/07 16:25:49;;;;;;;;;2.00;2.00;;;;;;;;4988725;28;62156;-82
2023/04/07 16:28:14;;;;;;;;;1.33;1.33;;;;;;;;4972798;28;61941;-83
2023/04/07 16:30:39;;;;;;;;;7.33;6.67;;;;;;;;4983198;28;65098;-83